Aviation Digital Data Service (ADDS)

Output produced by METARs form (2114 UTC 06 December 2019)
found at http://www.aviationweather.gov/metar/data/
 
Forecast for: COR
Text: TAF COR KEDW 061433Z 0614/0720 VRB06KT 9999 FEW250 QNH3016INS
Forecast period: 1400 UTC 06 December 2019 to 0200 UTC 07 December 2019
Forecast type: FROM: standard forecast or significant change
Winds: variable direction winds at 7 MPH (6 knots; 3.1 m/s)
Visibility: 6 or more miles 10+ km)
Ceiling: at least 12,000 feet AGL
Clouds: few clouds at 25000 feet AGL
Weather: no significant weather forecast for this period
Text: BECMG 0702/0703 VRB06KT 9999 SCT200 QNH3016INS
Forecast period: 0200 to 1900 UTC 07 December 2019
Forecast type: BECOMING: Conditions expected to become as follows by 0300 UTC 07 December 2019
Winds: variable direction winds at 7 MPH (6 knots; 3.1 m/s)
Visibility: 6 or more miles 10+ km)
Ceiling: at least 12,000 feet AGL
Clouds: scattered clouds at 20000 feet AGL
Weather: no significant weather forecast for this period
Text: BECMG 0719/0720 23012KT 9999 BKN250 QNH3013INS TX16/0621Z TN05/0614Z
Forecast period: 1900 to 2000 UTC 07 December 2019
Forecast type: BECOMING: Conditions expected to become as follows by 2000 UTC 07 December 2019
Winds: from the SW (230 degrees) at 14 MPH (12 knots; 6.2 m/s)
Visibility: 6 or more miles 10+ km)
Ceiling: 25000 feet AGL
Clouds: broken clouds at 25000 feet AGL
Weather: no significant weather forecast for this period